createdAt,value
2024-01-15T00:01:01.247Z,1.62
2024-01-15T00:05:48.614Z,1.61
2024-01-15T00:10:35.849Z,0.91
2024-01-15T00:15:26.029Z,1.07
2024-01-15T00:20:14.827Z,1.51
2024-01-15T00:25:02.152Z,1.51
2024-01-15T00:29:49.338Z,1.44
2024-01-15T00:34:39.233Z,1.35
2024-01-15T00:39:26.625Z,1.59
2024-01-15T00:44:16.193Z,1.67
2024-01-15T00:49:03.714Z,1.03
2024-01-15T00:53:53.562Z,0.74
2024-01-15T00:58:40.910Z,1.65
2024-01-15T01:03:28.263Z,1.44
2024-01-15T01:08:16.827Z,0.91
2024-01-15T01:13:06.649Z,1.69
2024-01-15T01:17:53.962Z,1.73
2024-01-15T01:22:41.360Z,1.74
2024-01-15T01:27:28.651Z,1.68
2024-01-15T01:32:18.499Z,1.65
2024-01-15T01:37:05.922Z,1.67
2024-01-15T01:41:53.207Z,1.58
2024-01-15T01:46:40.728Z,0.85
2024-01-15T01:51:57.844Z,1.69
2024-01-15T01:56:48.808Z,1.66
2024-01-15T02:01:36.038Z,1.59
2024-01-15T02:06:24.225Z,1.60
2024-01-15T02:11:12.271Z,1.36
2024-01-15T02:16:02.027Z,1.61
2024-01-15T02:20:49.242Z,1.04
2024-01-15T02:25:40.735Z,1.46
2024-01-15T02:30:28.838Z,1.49
2024-01-15T02:35:16.389Z,1.39
2024-01-15T02:40:03.626Z,1.21
2024-01-15T02:44:53.571Z,1.31
2024-01-15T02:49:40.996Z,1.27
2024-01-15T02:54:28.488Z,1.43
2024-01-15T02:59:15.682Z,1.37
2024-01-15T03:04:05.792Z,1.41
2024-01-15T03:08:53.021Z,1.27
2024-01-15T03:13:40.213Z,1.27
2024-01-15T03:18:30.514Z,1.42
2024-01-15T03:23:21.992Z,1.39
2024-01-15T03:28:09.212Z,1.42
2024-01-15T03:32:56.383Z,0.74
2024-01-15T03:37:45.862Z,1.44
2024-01-15T03:42:35.873Z,1.21
2024-01-15T03:47:23.167Z,1.29
2024-01-15T03:52:10.352Z,1.24
2024-01-15T03:56:57.580Z,1.00
2024-01-15T04:01:52.283Z,1.07
2024-01-15T04:06:39.753Z,0.81
2024-01-15T04:11:27.090Z,1.15
2024-01-15T04:16:14.372Z,1.06
2024-01-15T04:21:05.691Z,0.87
2024-01-15T04:25:53.224Z,0.46
2024-01-15T04:30:40.522Z,0.33
2024-01-15T04:35:27.858Z,0.99
2024-01-15T04:40:17.927Z,1.12
2024-01-15T04:45:06.128Z,1.14
2024-01-15T04:49:53.696Z,1.23
2024-01-15T04:54:41.208Z,0.74
2024-01-15T04:59:31.178Z,0.17
2024-01-15T05:04:18.821Z,0.25
2024-01-15T05:09:06.408Z,0.17
2024-01-15T05:13:53.790Z,0.22
2024-01-15T05:18:44.383Z,0.75
2024-01-15T05:23:32.894Z,0.83
2024-01-15T05:28:20.082Z,0.78
2024-01-15T05:33:07.444Z,0.73
2024-01-15T05:37:57.659Z,0.70
2024-01-15T05:42:44.923Z,0.00
2024-01-15T05:47:32.235Z,0.63
2024-01-15T05:52:19.466Z,0.50
2024-01-15T05:57:09.285Z,0.62
2024-01-15T06:01:56.650Z,0.54
2024-01-15T06:06:43.921Z,0.33
2024-01-15T06:11:31.552Z,0.26
2024-01-15T06:16:21.515Z,-0.49
2024-01-15T06:21:08.805Z,0.36
2024-01-15T06:25:56.127Z,-0.08
2024-01-15T06:30:43.610Z,0.22
2024-01-15T06:35:33.406Z,0.49
2024-01-15T06:40:20.585Z,0.38
2024-01-15T06:45:09.199Z,0.38
2024-01-15T06:49:56.483Z,0.41
2024-01-15T06:54:46.627Z,0.02
2024-01-15T06:59:34.000Z,0.44
2024-01-15T07:04:21.298Z,0.43
2024-01-15T07:09:08.610Z,0.36
2024-01-15T07:13:58.494Z,0.30
2024-01-15T07:18:45.725Z,0.28
2024-01-15T07:23:33.517Z,0.22
2024-01-15T07:28:20.754Z,0.48
2024-01-15T07:33:10.712Z,0.47
2024-01-15T07:37:57.965Z,0.06
2024-01-15T07:42:45.362Z,0.42
2024-01-15T07:47:32.886Z,-0.30
2024-01-15T07:52:22.801Z,-0.41
2024-01-15T07:57:10.163Z,-0.29
2024-01-15T08:01:57.566Z,-0.12
2024-01-15T08:06:45.318Z,-0.14
2024-01-15T08:11:35.936Z,-0.18
2024-01-15T08:16:23.210Z,0.20
2024-01-15T08:21:10.487Z,-0.22
2024-01-15T08:25:57.945Z,0.56
2024-01-15T08:30:47.823Z,0.59
2024-01-15T08:35:35.110Z,-0.07
2024-01-15T08:40:22.443Z,0.68
2024-01-15T08:45:10.173Z,0.56
2024-01-15T08:50:00.043Z,0.15
2024-01-15T08:54:47.294Z,0.53
2024-01-15T08:59:34.526Z,0.86
2024-01-15T09:04:22.156Z,0.72
2024-01-15T09:09:11.992Z,0.71
2024-01-15T09:13:59.214Z,0.44
2024-01-15T09:18:46.544Z,1.18
2024-01-15T09:23:33.863Z,1.24
2024-01-15T09:28:23.757Z,1.46
2024-01-15T09:33:11.255Z,1.16
2024-01-15T09:37:58.719Z,1.54
2024-01-15T09:42:47.404Z,1.82
2024-01-15T09:47:40.007Z,1.85
2024-01-15T09:52:29.329Z,1.20
2024-01-15T09:57:17.825Z,1.09
2024-01-15T10:02:06.889Z,2.44
2024-01-15T10:07:02.451Z,2.53
2024-01-15T10:11:50.649Z,2.48
2024-01-15T10:16:38.830Z,2.32
2024-01-15T10:21:26.874Z,3.07
2024-01-15T10:26:19.309Z,2.88
2024-01-15T10:31:11.611Z,2.67
2024-01-15T10:36:01.439Z,1.73
2024-01-15T10:40:48.927Z,2.05
2024-01-15T10:45:41.496Z,1.16
2024-01-15T10:50:30.812Z,1.67
2024-01-15T10:55:20.257Z,1.27
2024-01-15T11:00:09.139Z,0.98
2024-01-15T11:05:00.855Z,1.39
2024-01-15T11:09:48.331Z,0.71
2024-01-15T11:14:36.067Z,1.35
2024-01-15T11:19:23.917Z,1.06
2024-01-15T11:24:37.755Z,1.63
2024-01-15T11:29:32.800Z,1.55
2024-01-15T11:34:20.103Z,1.70
2024-01-15T11:39:43.382Z,1.85
2024-01-15T11:44:31.479Z,1.85
2024-01-15T11:49:38.118Z,1.21
2024-01-15T11:54:25.462Z,1.89
2024-01-15T11:59:16.301Z,1.69
2024-01-15T12:04:04.591Z,1.23
2024-01-15T12:08:51.986Z,1.78
2024-01-15T12:13:39.268Z,1.23
2024-01-15T12:18:29.235Z,1.45
2024-01-15T12:23:17.100Z,1.69
2024-01-15T12:28:05.123Z,1.41
2024-01-15T12:32:53.709Z,1.74
2024-01-15T12:37:44.909Z,1.63
2024-01-15T12:42:32.421Z,1.66
2024-01-15T12:47:21.463Z,1.65
2024-01-15T12:52:10.874Z,1.35
2024-01-15T12:57:00.893Z,1.33
2024-01-15T13:01:48.372Z,2.15
2024-01-15T13:06:35.909Z,2.29
2024-01-15T13:11:23.260Z,2.56
2024-01-15T13:16:13.083Z,2.85
2024-01-15T13:21:00.229Z,2.92
2024-01-15T13:25:47.456Z,1.87
2024-01-15T13:30:35.205Z,1.72
2024-01-15T13:35:27.440Z,2.60
2024-01-15T13:40:18.501Z,2.08
2024-01-15T13:45:06.848Z,2.50
2024-01-15T13:49:54.212Z,2.59
2024-01-15T13:54:49.446Z,1.43
2024-01-15T13:59:38.148Z,1.62
2024-01-15T14:04:25.371Z,2.07
2024-01-15T14:09:12.684Z,1.95
2024-01-15T14:14:02.623Z,1.34
2024-01-15T14:18:49.952Z,1.53
2024-01-15T14:23:37.290Z,1.88
2024-01-15T14:28:24.616Z,1.92
2024-01-15T14:38:29.731Z,1.66
2024-01-15T14:43:17.185Z,1.93
2024-01-15T14:48:04.905Z,1.24
2024-01-15T14:52:55.215Z,1.87
2024-01-15T14:57:42.591Z,1.62
2024-01-15T15:02:31.579Z,1.21
2024-01-15T15:07:20.445Z,0.64
2024-01-15T15:12:10.859Z,1.00
2024-01-15T15:16:58.249Z,1.43
2024-01-15T15:33:33.091Z,1.24
2024-01-15T15:38:21.585Z,1.70
2024-01-15T15:43:08.822Z,1.77
2024-01-15T15:47:56.003Z,0.97
2024-01-15T15:52:46.105Z,1.58
2024-01-15T15:57:33.407Z,0.55
2024-01-15T16:02:22.437Z,1.50
2024-01-15T16:07:10.045Z,0.65
2024-01-15T16:12:02.072Z,1.27
2024-01-15T16:23:12.810Z,1.35
2024-01-15T16:23:39.023Z,0.83
2024-01-15T16:32:01.245Z,0.98
2024-01-15T16:36:48.562Z,1.16
2024-01-15T16:41:35.959Z,0.28
2024-01-15T16:46:25.770Z,0.14
2024-01-15T16:51:13.488Z,0.63
2024-01-15T16:56:00.842Z,0.92
2024-01-15T17:00:51.793Z,0.99
2024-01-15T17:05:41.745Z,1.08
2024-01-15T17:10:28.975Z,1.41
2024-01-15T17:15:16.305Z,1.43
2024-01-15T17:20:04.196Z,1.43
2024-01-15T17:24:54.220Z,0.47
2024-01-15T17:29:45.810Z,1.37
2024-01-15T17:34:33.097Z,0.72
2024-01-15T17:39:20.468Z,1.03
2024-01-15T17:44:10.304Z,1.37
2024-01-15T17:48:57.879Z,0.97
2024-01-15T17:53:47.175Z,1.26
2024-01-15T17:58:34.706Z,0.48
2024-01-15T18:03:24.615Z,0.99
2024-01-15T18:08:12.160Z,1.22
2024-01-15T18:12:59.447Z,1.23
2024-01-15T18:17:57.055Z,1.25
2024-01-15T18:22:47.207Z,0.75
2024-01-15T18:27:35.866Z,0.65
2024-01-15T18:32:23.318Z,0.75
2024-01-15T18:37:12.943Z,1.17
2024-01-15T18:42:02.722Z,0.84
2024-01-15T18:46:49.954Z,1.00
2024-01-15T18:51:37.270Z,0.92
2024-01-15T18:56:24.779Z,0.88
2024-01-15T19:01:14.921Z,0.24
2024-01-15T19:06:02.293Z,-0.49
2024-01-15T19:10:50.100Z,0.75
2024-01-15T19:15:37.322Z,0.70
2024-01-15T19:20:27.648Z,0.49
2024-01-15T19:25:16.855Z,-0.17
2024-01-15T19:30:04.901Z,0.04
2024-01-15T19:34:52.282Z,0.39
2024-01-15T19:39:42.186Z,0.47
2024-01-15T19:44:30.855Z,-0.27
2024-01-15T19:49:18.221Z,0.12
2024-01-15T19:54:05.476Z,0.15
2024-01-15T19:58:58.328Z,-0.77
2024-01-15T20:03:46.098Z,-0.13
2024-01-15T20:08:33.355Z,-0.19
2024-01-15T20:13:21.310Z,-0.41
2024-01-15T20:18:24.911Z,-0.64
2024-01-15T20:23:12.382Z,-0.23
2024-01-15T20:28:02.072Z,-0.30
2024-01-15T20:32:49.524Z,0.18
2024-01-15T20:37:39.706Z,-0.25
2024-01-15T20:42:27.162Z,-0.22
2024-01-15T20:47:14.511Z,-0.12
2024-01-15T20:52:03.913Z,0.40
2024-01-15T20:56:55.948Z,-0.73
2024-01-15T21:01:43.150Z,0.30
2024-01-15T21:06:30.753Z,0.44
2024-01-15T21:11:18.084Z,-0.03
2024-01-15T21:16:08.054Z,0.32
2024-01-15T21:20:55.379Z,0.46
2024-01-15T21:25:42.816Z,0.25
2024-01-15T21:30:31.563Z,0.05
2024-01-15T21:35:25.124Z,0.54
2024-01-15T21:40:12.925Z,-0.05
2024-01-15T21:45:00.556Z,-0.61
2024-01-15T21:49:49.641Z,-0.79
2024-01-15T21:54:43.745Z,-0.18
2024-01-15T21:59:33.218Z,0.49
2024-01-15T22:04:22.926Z,0.35
2024-01-15T22:09:16.195Z,-0.39
2024-01-15T22:14:07.760Z,0.19
2024-01-15T22:19:02.487Z,0.34
2024-01-15T22:23:52.631Z,-0.88
2024-01-15T22:28:59.468Z,0.32
2024-01-15T22:33:52.636Z,-0.41
2024-01-15T22:38:40.038Z,0.27
2024-01-15T22:43:27.433Z,-0.61
2024-01-15T22:48:29.088Z,0.20
2024-01-15T22:53:19.068Z,-0.22
2024-01-15T22:58:07.701Z,-0.49
2024-01-15T23:02:54.921Z,-0.02
2024-01-15T23:07:42.201Z,0.06
2024-01-15T23:12:34.019Z,-0.09
2024-01-15T23:17:21.154Z,-0.03
2024-01-15T23:22:08.470Z,-0.16
2024-01-15T23:26:55.758Z,-0.07
2024-01-15T23:31:45.573Z,-0.13
2024-01-15T23:36:33.020Z,-0.50
2024-01-15T23:41:20.595Z,-0.19
2024-01-15T23:46:14.350Z,-0.87
2024-01-15T23:51:05.556Z,-0.10
2024-01-15T23:55:52.744Z,-0.96
